Dk Ione — 3ETX — position and weather

sailwx.info

Track history (hours):
 
Tides and Currents Weather Stations Pressure Air Temp Water Temp Dewpoint Dewpoint Depression Visibility Wind Speed Wind Dir Waves Ship Positions

Dk Ione

Last reported at 2016-May-05 19:25 UTC. Time now 2016-May-06 16:46 UTC.
Position N 28°37' W 014°52'.

Length 196 m; draft 10.6 m.

Type: Cargo ship. MMSI: 353245000.

Date/timePositionNaut miles runAvg speedWind from/ knotsBaromVisibWave heightAir tempDewpointWater temp
2016-May-05 19:25N 28°37' W 014°52'1011.7
2016-May-05 18:33N 28°29' W 014°59'1111.4
2016-May-05 17:33N 28°21' W 015°08'1111.4
2016-May-05 16:33N 28°12' W 015°17'9 8.7
2016-May-05 15:33N 28°06' W 015°24'0 0.1
2016-May-05 14:34N 28°06' W 015°24'0 0.0
2016-May-05 13:34N 28°06' W 015°24'0 0.0
2016-May-05 12:33N 28°06' W 015°24'0 0.0
2016-May-05 11:34N 28°06' W 015°24'2 2.0
2016-May-05 10:34N 28°07' W 015°22'1110.8
2016-May-05 09:33N 28°18' W 015°24'1312.9
2016-May-05 08:34N 28°31' W 015°28'1211.9
2016-May-05 07:33N 28°38' W 015°38'1312.6
2016-May-05 06:32N 28°45' W 015°51'  
Track history (hours):
 
Tides and Currents Weather Stations Pressure Air Temp Water Temp Dewpoint Dewpoint Depression Visibility Wind Speed Wind Dir Waves Ship Positions

Dk Ione

Last reported at 2016-May-05 19:25 UTC. Time now 2016-May-06 16:46 UTC.
Position N 28°37' W 014°52'.

Length 196 m; draft 10.6 m.

Type: Cargo ship. MMSI: 353245000.

Date/timePositionNaut miles runAvg speedWind from/ knotsBaromVisibWave heightAir tempDewpointWater temp
2016-May-05 19:25N 28°37' W 014°52'1011.7
2016-May-05 18:33N 28°29' W 014°59'1111.4
2016-May-05 17:33N 28°21' W 015°08'1111.4
2016-May-05 16:33N 28°12' W 015°17'9 8.7
2016-May-05 15:33N 28°06' W 015°24'0 0.1
2016-May-05 14:34N 28°06' W 015°24'0 0.0
2016-May-05 13:34N 28°06' W 015°24'0 0.0
2016-May-05 12:33N 28°06' W 015°24'0 0.0
2016-May-05 11:34N 28°06' W 015°24'2 2.0
2016-May-05 10:34N 28°07' W 015°22'1110.8
2016-May-05 09:33N 28°18' W 015°24'1312.9
2016-May-05 08:34N 28°31' W 015°28'1211.9
2016-May-05 07:33N 28°38' W 015°38'1312.6
2016-May-05 06:32N 28°45' W 015°51'  

Dump ship's entire track history